Portada
METAR-TAF:

METAR-TAF

Aeroports :

Madrid-Torrejón, Espanya

latitud: 40-29N, longitud: 003-27W, altitud: 607 m

Observació

L'informe es va fer fa 27 minuts, a les 21:00 UTC
Vent 6 kt del Nord-Est
Temperatura 27°C
Humitat 39%
Pressió 1016 hPa
Visibilitat 10 km o més
sense núvols per sota de 1500 mi sense presència de cumulonimbus.

METAR: LETO 232100Z 04006KT CAVOK 27/12 Q1016 NOSIG

Hora: 23:27 (21:27 UTC)

Pronòstic

L'informe es va fer fa 4 hores i 27 minuts, a les 17:00 UTC
Pronòstic vàlid del 23 a les 18 UTC al 24 a les 18 UTC
Vent 5 kt amb direcció variable
Visibilitat 10 km o més
sense núvols per sota de 1500 mi sense presència de cumulonimbus.
Temporalment
l' 23 a les 18 UTC al 24 a les 02 UTC
Vent 12 kt del Nord/Nord-Est
Probabilitat 30% :
Temporalment
l' 23 a les 18 UTC al 23 a les 21 UTC
Vent 17 kt del Nord amb ràfegues de 27 kt

TAF: LETO 231700Z 2318/2418 VRB05KT CAVOK TX38/2416Z TN19/2405Z TEMPO 2318/2402 02012KT PROB30 TEMPO 2318/2321 01017G27KT

Observacions i pronòstics meteorològics de més de 4000 aeroports (METAR i TAF).

Les estacions disponibles són els punts grocs i vermells al mapa.

Posi el ratolí al punt desitjat per veure el nom de l'estació.

Feu clic per veure les observacions i els pronòstics meteorològics.

Per canviar el mapa: feu clic els botons verds amb una creu de color negre per apropar; al botó verd amb un guió per allunyar la imatge; o en les fletxes verdes per a mapes adjacents.


METAR-TAF: